Time;durP1;ratioP1;P1;durP2;ratioP2;P2;SDS_P1;SDS_P2;PMS_P1;PMS_P2;Temp;Humidity;BMP_temperature;BMP_pressure;BME280_temperature;BME280_humidity;BME280_pressure;Samples;Min_cycle;Max_cycle;Signal;HPM_P1;HPM_P2
2023/03/04 00:01:49;;;;;;;16.52;3.58;;;;;;;;;;5147425;27;20042;-75
2023/03/04 00:04:15;;;;;;;16.50;2.97;;;;;;;;;;5114535;28;20051;-75
2023/03/04 00:06:41;;;;;;;12.77;2.83;;;;;;;;;;5132822;28;20129;-74
2023/03/04 00:09:07;;;;;;;15.63;2.92;;;;;;;;;;5133261;28;20051;-75
2023/03/04 00:11:34;;;;;;;11.43;2.67;;;;;;;;;;5131619;28;20058;-75
2023/03/04 00:14:00;;;;;;;14.48;2.85;;;;;;;;;;5131607;28;20047;-75
2023/03/04 00:16:26;;;;;;;14.75;3.00;;;;;;;;;;5130923;28;20492;-75
2023/03/04 00:18:56;;;;;;;12.93;2.63;;;;;;;;;;5133291;28;20710;-75
2023/03/04 00:21:22;;;;;;;12.68;2.55;;;;;;;;;;5114839;28;20054;-75
2023/03/04 00:23:48;;;;;;;12.60;2.67;;;;;;;;;;5114452;28;20046;-75
2023/03/04 00:26:14;;;;;;;18.20;2.78;;;;;;;;;;5133347;28;20497;-75
2023/03/04 00:28:40;;;;;;;14.10;2.72;;;;;;;;;;5132042;28;20047;-74
2023/03/04 00:31:07;;;;;;;12.43;2.53;;;;;;;;;;5131910;28;20501;-75
2023/03/04 00:33:33;;;;;;;17.70;3.80;;;;;;;;;;5114374;28;20039;-75
2023/03/04 00:35:59;;;;;;;15.30;2.83;;;;;;;;;;5129382;28;20349;-75
2023/03/04 00:38:25;;;;;;;16.58;3.00;;;;;;;;;;5112318;28;20039;-75
2023/03/04 00:40:52;;;;;;;18.52;2.65;;;;;;;;;;5090746;27;20051;-75
2023/03/04 00:43:18;;;;;;;10.60;2.72;;;;;;;;;;5144328;27;20080;-75
2023/03/04 00:45:44;;;;;;;9.10;2.65;;;;;;;;;;5126541;27;20190;-75
2023/03/04 00:48:10;;;;;;;10.70;2.25;;;;;;;;;;5136855;27;20042;-75
2023/03/04 00:50:36;;;;;;;11.85;2.30;;;;;;;;;;5152333;27;20122;-75
2023/03/04 00:53:02;;;;;;;16.23;2.50;;;;;;;;;;5146330;27;20126;-75
2023/03/04 00:55:28;;;;;;;16.52;2.80;;;;;;;;;;5132976;27;20064;-75
2023/03/04 00:57:54;;;;;;;13.70;2.88;;;;;;;;;;5137494;27;20104;-75
2023/03/04 01:00:21;;;;;;;14.07;3.20;;;;;;;;;;5152556;27;20145;-75
2023/03/04 01:02:47;;;;;;;14.05;2.65;;;;;;;;;;5151565;27;20392;-75
2023/03/04 01:05:13;;;;;;;15.88;2.53;;;;;;;;;;5125553;27;20053;-76
2023/03/04 01:07:39;;;;;;;12.93;2.80;;;;;;;;;;5109863;27;20045;-75
2023/03/04 01:10:06;;;;;;;18.73;3.38;;;;;;;;;;5141392;27;20051;-75
2023/03/04 01:12:32;;;;;;;15.82;2.92;;;;;;;;;;5117689;27;20087;-76
2023/03/04 01:14:58;;;;;;;14.90;2.67;;;;;;;;;;5136309;27;20046;-76
2023/03/04 01:17:24;;;;;;;12.55;3.42;;;;;;;;;;5134649;27;20118;-76
2023/03/04 01:19:50;;;;;;;15.82;2.95;;;;;;;;;;5136213;27;20479;-76
2023/03/04 01:22:17;;;;;;;19.02;3.47;;;;;;;;;;5134843;27;20348;-76
2023/03/04 01:24:44;;;;;;;15.40;2.97;;;;;;;;;;5117267;27;20107;-75
2023/03/04 01:27:10;;;;;;;18.40;2.78;;;;;;;;;;5136114;27;20495;-76
2023/03/04 01:29:36;;;;;;;19.75;3.03;;;;;;;;;;5136025;27;20081;-76
2023/03/04 01:32:02;;;;;;;14.82;2.75;;;;;;;;;;5100352;27;20082;-75
2023/03/04 01:34:28;;;;;;;10.48;2.70;;;;;;;;;;5117484;27;20039;-75
2023/03/04 01:36:54;;;;;;;12.93;2.67;;;;;;;;;;5105496;28;20047;-75
2023/03/04 01:39:20;;;;;;;11.82;3.13;;;;;;;;;;5135205;27;20122;-76
2023/03/04 01:41:46;;;;;;;10.98;2.55;;;;;;;;;;5149525;27;20039;-76
2023/03/04 01:44:13;;;;;;;13.07;2.85;;;;;;;;;;5140178;27;20043;-76
2023/03/04 01:46:40;;;;;;;14.32;3.50;;;;;;;;;;5135650;27;20074;-76
2023/03/04 01:49:06;;;;;;;15.48;2.65;;;;;;;;;;5114611;27;20389;-75
2023/03/04 01:51:32;;;;;;;16.48;2.85;;;;;;;;;;5139196;27;20057;-76
2023/03/04 01:53:58;;;;;;;18.35;2.78;;;;;;;;;;5148017;27;20042;-76
2023/03/04 01:56:27;;;;;;;17.25;3.25;;;;;;;;;;5137337;27;20123;-76
2023/03/04 01:59:12;;;;;;;15.38;2.95;;;;;;;;;;5155243;27;20505;-76
2023/03/04 02:01:39;;;;;;;15.65;2.55;;;;;;;;;;5154217;27;20051;-75
2023/03/04 02:04:06;;;;;;;12.80;2.63;;;;;;;;;;5140528;27;20043;-76
2023/03/04 02:06:32;;;;;;;10.32;2.55;;;;;;;;;;5134520;27;20141;-76
2023/03/04 02:08:58;;;;;;;17.23;3.00;;;;;;;;;;5134824;27;20058;-76
2023/03/04 02:11:24;;;;;;;17.40;2.70;;;;;;;;;;5116609;27;20047;-76
2023/03/04 02:13:51;;;;;;;16.17;2.63;;;;;;;;;;5115630;27;20043;-75
2023/03/04 02:16:17;;;;;;;14.55;2.50;;;;;;;;;;5116372;27;20035;-75
2023/03/04 02:18:43;;;;;;;19.83;3.28;;;;;;;;;;5134814;27;20368;-76
2023/03/04 02:21:20;;;;;;;12.52;2.63;;;;;;;;;;5134855;27;20054;-76
2023/03/04 02:23:50;;;;;;;16.73;2.65;;;;;;;;;;5134687;27;20130;-75
2023/03/04 02:26:27;;;;;;;16.55;2.97;;;;;;;;;;5135070;27;20118;-75
2023/03/04 02:28:53;;;;;;;17.42;2.72;;;;;;;;;;5133686;27;20086;-75
2023/03/04 02:31:22;;;;;;;10.25;2.78;;;;;;;;;;5134545;27;20070;-75
2023/03/04 02:33:49;;;;;;;10.82;2.92;;;;;;;;;;5133063;27;20051;-76
2023/03/04 02:36:15;;;;;;;12.73;2.65;;;;;;;;;;5130702;27;20061;-76
2023/03/04 02:38:41;;;;;;;17.02;2.83;;;;;;;;;;5116098;27;20047;-75
2023/03/04 02:41:11;;;;;;;13.55;3.22;;;;;;;;;;5116266;27;20047;-76
2023/03/04 02:43:37;;;;;;;11.23;2.50;;;;;;;;;;5124411;27;20058;-75
2023/03/04 02:46:04;;;;;;;10.32;2.40;;;;;;;;;;5123061;27;20076;-75
2023/03/04 02:48:30;;;;;;;12.07;2.70;;;;;;;;;;5089553;28;20090;-75
2023/03/04 02:50:57;;;;;;;11.15;2.40;;;;;;;;;;5125433;27;20391;-75
2023/03/04 02:53:24;;;;;;;11.23;2.47;;;;;;;;;;5134493;27;20501;-75
2023/03/04 02:55:50;;;;;;;13.27;2.63;;;;;;;;;;5133905;27;20066;-76
2023/03/04 02:58:16;;;;;;;8.88;2.35;;;;;;;;;;5149775;27;20083;-76
2023/03/04 03:00:42;;;;;;;12.82;2.90;;;;;;;;;;5151527;27;20235;-75
2023/03/04 03:03:09;;;;;;;15.95;2.63;;;;;;;;;;5139577;27;20031;-76
2023/03/04 03:05:35;;;;;;;11.82;2.70;;;;;;;;;;5145016;27;20043;-75
2023/03/04 03:08:01;;;;;;;10.90;2.35;;;;;;;;;;5146760;27;20034;-76
2023/03/04 03:10:27;;;;;;;11.73;2.30;;;;;;;;;;5152826;27;20051;-75
2023/03/04 03:12:53;;;;;;;12.25;2.80;;;;;;;;;;5136658;27;20415;-75
2023/03/04 03:15:19;;;;;;;15.75;2.80;;;;;;;;;;5135939;27;20047;-76
2023/03/04 03:17:47;;;;;;;12.02;2.80;;;;;;;;;;5142814;27;20465;-75
2023/03/04 03:20:13;;;;;;;13.13;2.50;;;;;;;;;;5154508;27;20093;-76
2023/03/04 03:22:39;;;;;;;11.40;2.55;;;;;;;;;;5134515;27;20046;-76
2023/03/04 03:25:06;;;;;;;16.23;2.67;;;;;;;;;;5117752;27;20095;-75
2023/03/04 03:27:32;;;;;;;9.80;2.58;;;;;;;;;;5146065;27;20047;-76
2023/03/04 03:29:58;;;;;;;11.52;2.00;;;;;;;;;;5133732;27;20047;-75
2023/03/04 03:32:24;;;;;;;11.15;2.55;;;;;;;;;;5131469;27;20041;-76
2023/03/04 03:34:50;;;;;;;12.52;2.70;;;;;;;;;;5120224;27;20091;-75
2023/03/04 03:37:16;;;;;;;16.20;3.08;;;;;;;;;;5120638;27;20091;-76
2023/03/04 03:39:42;;;;;;;14.48;2.65;;;;;;;;;;5099242;27;20039;-75
2023/03/04 03:42:08;;;;;;;7.32;2.35;;;;;;;;;;5124193;27;20034;-75
2023/03/04 03:44:34;;;;;;;13.65;2.60;;;;;;;;;;5153809;27;20039;-76
2023/03/04 03:47:00;;;;;;;13.60;2.33;;;;;;;;;;5137369;27;20095;-76
2023/03/04 03:49:26;;;;;;;12.07;2.35;;;;;;;;;;5139948;27;20092;-75
2023/03/04 03:51:52;;;;;;;12.13;2.28;;;;;;;;;;5103515;27;20055;-75
2023/03/04 03:54:18;;;;;;;17.27;2.53;;;;;;;;;;5147564;27;20476;-75
2023/03/04 03:56:44;;;;;;;12.40;2.60;;;;;;;;;;5133812;27;20047;-75
2023/03/04 03:59:10;;;;;;;16.52;2.70;;;;;;;;;;5149642;27;20122;-76
2023/03/04 04:01:36;;;;;;;9.25;2.83;;;;;;;;;;5138574;27;20038;-75
2023/03/04 04:04:02;;;;;;;15.80;2.35;;;;;;;;;;5127087;28;20043;-75
2023/03/04 04:06:29;;;;;;;14.32;2.47;;;;;;;;;;5133142;28;20035;-75
2023/03/04 04:08:55;;;;;;;11.23;2.33;;;;;;;;;;5114402;28;20483;-75
2023/03/04 04:11:21;;;;;;;11.55;2.40;;;;;;;;;;5133201;28;20103;-75
2023/03/04 04:13:47;;;;;;;13.20;2.30;;;;;;;;;;5112747;28;20039;-75
2023/03/04 04:16:13;;;;;;;13.50;2.00;;;;;;;;;;5131604;28;20035;-75
2023/03/04 04:18:39;;;;;;;12.48;2.00;;;;;;;;;;5132575;28;20039;-76
2023/03/04 04:21:05;;;;;;;12.65;2.35;;;;;;;;;;5131906;28;20100;-75
2023/03/04 04:23:31;;;;;;;8.02;2.35;;;;;;;;;;5114163;28;20043;-75
2023/03/04 04:25:58;;;;;;;12.65;2.05;;;;;;;;;;5097659;28;20059;-75
2023/03/04 04:28:24;;;;;;;6.18;2.10;;;;;;;;;;5132898;28;20046;-75
2023/03/04 04:30:50;;;;;;;9.82;2.60;;;;;;;;;;5132888;28;20047;-75
2023/03/04 04:33:17;;;;;;;9.52;2.30;;;;;;;;;;5114100;28;20043;-75
2023/03/04 04:35:43;;;;;;;12.18;2.30;;;;;;;;;;5113210;28;20110;-75
2023/03/04 04:38:09;;;;;;;10.85;2.13;;;;;;;;;;5098185;28;20047;-75
2023/03/04 04:40:35;;;;;;;12.02;2.53;;;;;;;;;;5097335;28;20500;-76
2023/03/04 04:43:01;;;;;;;9.25;2.33;;;;;;;;;;5119141;27;20035;-75
2023/03/04 04:45:27;;;;;;;12.63;2.28;;;;;;;;;;5128522;27;20051;-76
2023/03/04 04:47:56;;;;;;;12.02;2.50;;;;;;;;;;5137431;27;20050;-75
2023/03/04 04:50:22;;;;;;;11.32;2.33;;;;;;;;;;5105680;27;20493;-75
2023/03/04 04:52:48;;;;;;;11.27;2.47;;;;;;;;;;5149015;27;20051;-75
2023/03/04 04:55:14;;;;;;;10.85;2.33;;;;;;;;;;5118159;27;20063;-75
2023/03/04 04:57:40;;;;;;;10.48;2.30;;;;;;;;;;5118790;27;20043;-76
2023/03/04 05:00:07;;;;;;;11.07;2.47;;;;;;;;;;5122406;27;20387;-76
2023/03/04 05:02:35;;;;;;;15.30;2.40;;;;;;;;;;5109137;28;20104;-75
2023/03/04 05:05:02;;;;;;;13.13;2.50;;;;;;;;;;5115941;28;20097;-75
2023/03/04 05:07:28;;;;;;;8.98;2.55;;;;;;;;;;5132374;27;20049;-75
2023/03/04 05:09:54;;;;;;;8.40;2.00;;;;;;;;;;5135872;27;20239;-75
2023/03/04 05:12:20;;;;;;;8.65;2.58;;;;;;;;;;5122572;27;20047;-76
2023/03/04 05:14:46;;;;;;;8.85;2.15;;;;;;;;;;5135615;27;20049;-75
2023/03/04 05:17:12;;;;;;;13.30;2.80;;;;;;;;;;5124065;27;20433;-75
2023/03/04 05:19:38;;;;;;;11.40;2.22;;;;;;;;;;5135009;27;20047;-75
2023/03/04 05:22:04;;;;;;;10.40;2.15;;;;;;;;;;5139864;27;20051;-76
2023/03/04 05:24:30;;;;;;;12.10;2.38;;;;;;;;;;5136227;27;20416;-76
2023/03/04 05:26:56;;;;;;;8.77;1.90;;;;;;;;;;5154883;27;20126;-75
2023/03/04 05:29:22;;;;;;;13.52;2.35;;;;;;;;;;5137374;27;20082;-75
2023/03/04 05:31:48;;;;;;;12.15;2.75;;;;;;;;;;5153431;27;20129;-75
2023/03/04 05:34:14;;;;;;;15.00;2.22;;;;;;;;;;5156331;27;20168;-75
2023/03/04 05:36:40;;;;;;;11.88;2.60;;;;;;;;;;5144016;27;20043;-75
2023/03/04 05:39:06;;;;;;;9.43;2.17;;;;;;;;;;5135621;27;20479;-75
2023/03/04 05:41:32;;;;;;;13.50;2.22;;;;;;;;;;5125216;27;20074;-76
2023/03/04 05:43:58;;;;;;;16.05;4.05;;;;;;;;;;5156130;27;20399;-75
2023/03/04 05:46:24;;;;;;;15.10;2.75;;;;;;;;;;5120221;27;20042;-75
2023/03/04 05:48:54;;;;;;;17.20;2.78;;;;;;;;;;5134592;27;20035;-75
2023/03/04 05:51:20;;;;;;;17.10;3.03;;;;;;;;;;5150065;27;20087;-76
2023/03/04 05:53:46;;;;;;;12.95;2.28;;;;;;;;;;5128860;27;20043;-76
2023/03/04 05:56:16;;;;;;;14.82;3.35;;;;;;;;;;5155776;27;20086;-75
2023/03/04 05:58:42;;;;;;;12.48;2.38;;;;;;;;;;5118310;27;20568;-76
2023/03/04 06:01:08;;;;;;;10.32;2.80;;;;;;;;;;5104686;27;20043;-75
2023/03/04 06:03:35;;;;;;;13.77;2.22;;;;;;;;;;5147429;27;20125;-76
2023/03/04 06:06:01;;;;;;;15.30;2.80;;;;;;;;;;5116792;27;20043;-75
2023/03/04 06:08:27;;;;;;;10.95;2.28;;;;;;;;;;5135093;27;20042;-75
2023/03/04 06:10:55;;;;;;;14.15;2.22;;;;;;;;;;5102652;27;20075;-75
2023/03/04 06:13:21;;;;;;;9.85;2.22;;;;;;;;;;5135013;27;20039;-76
2023/03/04 06:15:47;;;;;;;11.32;2.55;;;;;;;;;;5133859;27;20046;-76
2023/03/04 06:18:13;;;;;;;8.88;2.03;;;;;;;;;;5115041;27;20488;-75
2023/03/04 06:20:40;;;;;;;14.77;2.72;;;;;;;;;;5117112;27;20425;-75
2023/03/04 06:23:06;;;;;;;11.20;2.63;;;;;;;;;;5134300;27;20057;-75
2023/03/04 06:25:32;;;;;;;11.73;2.47;;;;;;;;;;5134826;27;20248;-75
2023/03/04 06:27:58;;;;;;;11.57;2.10;;;;;;;;;;5126092;27;20071;-76
2023/03/04 06:30:24;;;;;;;9.52;2.00;;;;;;;;;;5116514;27;20127;-75
2023/03/04 06:32:50;;;;;;;14.70;2.42;;;;;;;;;;5134226;27;20096;-75
2023/03/04 06:35:16;;;;;;;14.25;2.13;;;;;;;;;;5134123;27;20381;-76
2023/03/04 06:37:42;;;;;;;12.73;2.10;;;;;;;;;;5096980;28;20544;-75
2023/03/04 06:40:09;;;;;;;14.02;2.40;;;;;;;;;;5113291;28;20046;-75
2023/03/04 06:42:35;;;;;;;17.73;2.63;;;;;;;;;;5110520;27;20038;-76
2023/03/04 06:45:01;;;;;;;16.05;2.58;;;;;;;;;;5134667;27;20049;-76
2023/03/04 06:47:28;;;;;;;16.17;2.28;;;;;;;;;;5141265;27;20050;-75
2023/03/04 06:49:54;;;;;;;12.00;2.38;;;;;;;;;;5132207;27;20078;-75
2023/03/04 06:52:20;;;;;;;11.85;2.40;;;;;;;;;;5115583;27;20080;-76
2023/03/04 06:54:46;;;;;;;14.43;3.13;;;;;;;;;;5124491;27;20043;-76
2023/03/04 06:57:12;;;;;;;10.13;2.65;;;;;;;;;;5134183;27;20495;-76
2023/03/04 06:59:38;;;;;;;11.50;2.42;;;;;;;;;;5151014;27;20038;-75
2023/03/04 07:02:04;;;;;;;12.63;2.45;;;;;;;;;;5122039;27;20039;-75
2023/03/04 07:04:30;;;;;;;10.30;2.30;;;;;;;;;;5116089;27;20053;-76
2023/03/04 07:06:56;;;;;;;10.95;2.40;;;;;;;;;;5134079;27;20039;-75
2023/03/04 07:09:23;;;;;;;11.27;2.30;;;;;;;;;;5119720;27;20212;-75
2023/03/04 07:11:49;;;;;;;11.02;2.35;;;;;;;;;;5131183;27;20479;-75
2023/03/04 07:14:15;;;;;;;10.88;2.83;;;;;;;;;;5123576;27;20042;-75
2023/03/04 07:16:41;;;;;;;12.65;2.67;;;;;;;;;;5133656;27;20038;-76
2023/03/04 07:19:07;;;;;;;11.90;1.90;;;;;;;;;;5136661;27;20125;-76
2023/03/04 07:21:33;;;;;;;8.38;1.90;;;;;;;;;;5106482;27;20104;-80
2023/03/04 07:23:59;;;;;;;11.50;2.58;;;;;;;;;;5109395;27;20087;-80
2023/03/04 07:26:25;;;;;;;9.75;2.30;;;;;;;;;;5134355;27;20051;-80
2023/03/04 07:28:53;;;;;;;8.60;2.35;;;;;;;;;;5100767;27;20117;-80
2023/03/04 07:31:23;;;;;;;13.90;2.50;;;;;;;;;;5130611;27;20352;-80
2023/03/04 07:33:50;;;;;;;10.23;2.38;;;;;;;;;;5129823;27;20451;-80
2023/03/04 07:36:18;;;;;;;13.52;2.80;;;;;;;;;;5112318;27;20074;-80
2023/03/04 07:38:47;;;;;;;16.35;2.50;;;;;;;;;;5114963;27;20035;-80
2023/03/04 07:41:14;;;;;;;13.25;2.88;;;;;;;;;;5115293;28;20043;-80
2023/03/04 07:43:40;;;;;;;9.15;2.53;;;;;;;;;;5133345;27;20050;-80
2023/03/04 07:46:06;;;;;;;12.52;2.80;;;;;;;;;;5114770;28;20039;-80
2023/03/04 07:48:32;;;;;;;14.45;3.10;;;;;;;;;;5112451;28;20104;-80
2023/03/04 07:51:05;;;;;;;14.10;3.35;;;;;;;;;;5094507;28;20134;-80
2023/03/04 07:53:31;;;;;;;14.32;2.53;;;;;;;;;;5112837;28;20043;-80
2023/03/04 07:55:57;;;;;;;16.88;3.03;;;;;;;;;;5117086;27;20456;-80
2023/03/04 07:58:24;;;;;;;17.05;3.05;;;;;;;;;;5153913;27;20388;-80
2023/03/04 08:00:50;;;;;;;17.95;3.33;;;;;;;;;;5140079;27;20475;-80
2023/03/04 08:03:16;;;;;;;20.58;3.92;;;;;;;;;;5114238;28;20075;-80
2023/03/04 08:05:42;;;;;;;18.88;3.72;;;;;;;;;;5132917;28;20088;-80
2023/03/04 08:08:09;;;;;;;26.50;3.65;;;;;;;;;;5132841;27;20035;-80
2023/03/04 08:10:35;;;;;;;17.95;3.70;;;;;;;;;;5133217;27;20059;-81
2023/03/04 08:13:01;;;;;;;21.25;3.60;;;;;;;;;;5118172;27;20432;-81
2023/03/04 08:15:31;;;;;;;22.13;4.78;;;;;;;;;;5101597;27;20487;-80
2023/03/04 08:17:57;;;;;;;22.55;4.78;;;;;;;;;;5104781;27;20054;-80
2023/03/04 08:20:23;;;;;;;25.42;4.38;;;;;;;;;;5112963;27;20042;-80
2023/03/04 08:22:51;;;;;;;20.33;3.80;;;;;;;;;;5101422;27;20035;-80
2023/03/04 08:25:17;;;;;;;24.52;4.43;;;;;;;;;;5119710;27;20047;-79
2023/03/04 08:27:43;;;;;;;27.33;4.53;;;;;;;;;;5118569;27;20043;-80
2023/03/04 08:30:09;;;;;;;19.73;4.15;;;;;;;;;;5136997;27;20051;-80
2023/03/04 08:32:35;;;;;;;24.98;3.63;;;;;;;;;;5118007;27;20403;-80
2023/03/04 08:35:02;;;;;;;27.67;4.93;;;;;;;;;;5136900;27;20196;-80
2023/03/04 08:37:31;;;;;;;24.42;4.88;;;;;;;;;;5125549;27;20446;-80
2023/03/04 08:39:57;;;;;;;24.60;4.15;;;;;;;;;;5148604;27;20043;-80
2023/03/04 08:42:23;;;;;;;21.30;3.70;;;;;;;;;;5136825;27;20035;-80
2023/03/04 08:44:49;;;;;;;26.73;4.10;;;;;;;;;;5136777;27;20047;-80
2023/03/04 08:47:15;;;;;;;22.13;3.72;;;;;;;;;;5135365;27;20050;-80
2023/03/04 08:49:41;;;;;;;19.33;4.00;;;;;;;;;;5137013;27;20062;-80
2023/03/04 08:52:07;;;;;;;21.15;4.13;;;;;;;;;;5117657;27;20129;-80
2023/03/04 08:54:33;;;;;;;18.58;3.78;;;;;;;;;;5137134;27;20047;-78
2023/03/04 08:56:59;;;;;;;22.77;4.07;;;;;;;;;;5136336;27;20469;-82
2023/03/04 08:59:25;;;;;;;22.17;3.95;;;;;;;;;;5138255;27;20133;-80
2023/03/04 09:01:51;;;;;;;18.50;3.70;;;;;;;;;;5157015;27;20043;-80
2023/03/04 09:04:17;;;;;;;19.52;3.88;;;;;;;;;;5138529;27;20134;-80
2023/03/04 09:06:43;;;;;;;27.02;4.18;;;;;;;;;;5157015;27;20062;-80
2023/03/04 09:09:10;;;;;;;19.90;3.63;;;;;;;;;;5138705;27;20368;-80
2023/03/04 09:11:36;;;;;;;15.45;3.10;;;;;;;;;;5138534;27;20407;-80
2023/03/04 09:14:03;;;;;;;19.17;3.83;;;;;;;;;;5138824;27;20047;-80
2023/03/04 09:16:29;;;;;;;14.93;3.08;;;;;;;;;;5135871;27;20043;-80
2023/03/04 09:18:55;;;;;;;16.10;3.45;;;;;;;;;;5118932;27;20046;-80
2023/03/04 09:21:21;;;;;;;12.50;3.10;;;;;;;;;;5117832;27;20046;-80
2023/03/04 09:23:47;;;;;;;19.02;3.15;;;;;;;;;;5117180;27;20088;-79
2023/03/04 09:26:21;;;;;;;14.73;2.90;;;;;;;;;;5137429;27;20043;-80
2023/03/04 09:28:49;;;;;;;13.07;2.50;;;;;;;;;;5102943;27;20141;-80
2023/03/04 09:31:15;;;;;;;14.63;2.65;;;;;;;;;;5126601;27;20051;-81
2023/03/04 09:33:42;;;;;;;8.57;2.22;;;;;;;;;;5117169;27;20039;-80
2023/03/04 09:36:11;;;;;;;14.82;2.78;;;;;;;;;;5130483;27;20130;-79
2023/03/04 09:38:38;;;;;;;9.05;2.42;;;;;;;;;;5096841;28;20040;-79
2023/03/04 09:41:06;;;;;;;16.05;2.80;;;;;;;;;;5115384;28;20094;-80
2023/03/04 09:43:33;;;;;;;10.57;2.67;;;;;;;;;;5096287;28;20174;-79
2023/03/04 09:46:02;;;;;;;10.38;2.70;;;;;;;;;;5114933;28;20496;-80
2023/03/04 09:48:29;;;;;;;13.57;2.40;;;;;;;;;;5133749;27;20044;-80
2023/03/04 09:50:55;;;;;;;8.20;2.20;;;;;;;;;;5117033;27;20043;-80
2023/03/04 09:53:33;;;;;;;10.35;2.42;;;;;;;;;;5116141;27;20043;-80
2023/03/04 09:56:01;;;;;;;10.98;2.15;;;;;;;;;;5135537;27;20480;-81
2023/03/04 09:58:37;;;;;;;8.13;2.05;;;;;;;;;;5116594;27;20039;-81
2023/03/04 10:01:03;;;;;;;8.75;1.77;;;;;;;;;;5116812;27;20035;-81
2023/03/04 10:03:42;;;;;;;7.20;1.73;;;;;;;;;;5116550;27;20103;-81
2023/03/04 10:06:10;;;;;;;9.90;1.98;;;;;;;;;;5134972;27;20043;-82
2023/03/04 10:08:36;;;;;;;15.90;2.63;;;;;;;;;;5116408;27;20047;-79
2023/03/04 10:11:05;;;;;;;15.02;3.15;;;;;;;;;;5135008;27;20403;-82
2023/03/04 10:13:38;;;;;;;15.50;3.13;;;;;;;;;;5134131;27;20027;-79
2023/03/04 10:16:06;;;;;;;19.98;3.40;;;;;;;;;;5115600;27;20055;-76
2023/03/04 10:18:48;;;;;;;17.58;3.30;;;;;;;;;;5122179;27;20503;-80
2023/03/04 10:21:20;;;;;;;20.83;3.75;;;;;;;;;;5115411;27;20113;-80
2023/03/04 10:23:47;;;;;;;17.63;3.70;;;;;;;;;;5116744;27;20121;-80
2023/03/04 10:26:15;;;;;;;16.83;3.95;;;;;;;;;;5133353;27;20054;-80
2023/03/04 10:28:41;;;;;;;17.52;3.70;;;;;;;;;;5134719;27;20039;-80
2023/03/04 10:31:21;;;;;;;24.65;4.53;;;;;;;;;;5118016;27;20134;-80
2023/03/04 10:33:47;;;;;;;20.58;3.78;;;;;;;;;;5126582;27;20156;-80
2023/03/04 10:36:28;;;;;;;20.02;3.30;;;;;;;;;;5128310;27;20043;-80
2023/03/04 10:39:14;;;;;;;16.13;3.42;;;;;;;;;;5095508;28;20546;-80
2023/03/04 10:41:45;;;;;;;17.90;3.58;;;;;;;;;;5114060;27;20047;-80
2023/03/04 10:44:16;;;;;;;17.58;3.25;;;;;;;;;;5114992;27;20055;-80
2023/03/04 10:46:46;;;;;;;13.68;3.22;;;;;;;;;;5099533;27;20043;-80
2023/03/04 10:49:14;;;;;;;15.98;3.10;;;;;;;;;;5098766;27;20047;-80
2023/03/04 10:51:55;;;;;;;13.98;3.30;;;;;;;;;;5115216;27;20083;-80
2023/03/04 10:54:26;;;;;;;17.27;3.80;;;;;;;;;;5115870;27;20541;-80
2023/03/04 10:56:58;;;;;;;15.55;3.58;;;;;;;;;;5115848;27;20075;-80
2023/03/04 10:59:38;;;;;;;16.30;3.70;;;;;;;;;;5116308;27;20054;-80
2023/03/04 11:02:14;;;;;;;14.32;3.30;;;;;;;;;;5124339;27;20070;-80
2023/03/04 11:04:41;;;;;;;22.80;3.60;;;;;;;;;;5136275;27;20043;-80
2023/03/04 11:07:10;;;;;;;23.27;4.15;;;;;;;;;;5154704;27;20035;-81
2023/03/04 11:09:38;;;;;;;17.05;3.33;;;;;;;;;;5135978;27;20054;-80
2023/03/04 11:12:10;;;;;;;15.38;3.15;;;;;;;;;;5118602;27;20130;-80
2023/03/04 11:14:39;;;;;;;14.57;3.50;;;;;;;;;;5115968;27;20064;-80
2023/03/04 11:17:24;;;;;;;19.98;4.20;;;;;;;;;;5154137;27;20042;-80
2023/03/04 11:20:07;;;;;;;19.05;3.55;;;;;;;;;;5136119;27;20050;-80
2023/03/04 11:22:33;;;;;;;15.20;3.63;;;;;;;;;;5150544;27;20061;-80
2023/03/04 11:25:05;;;;;;;15.07;3.08;;;;;;;;;;5153067;27;20082;-81
2023/03/04 11:27:37;;;;;;;15.73;3.05;;;;;;;;;;5139229;27;20051;-80
2023/03/04 11:30:15;;;;;;;18.42;3.35;;;;;;;;;;5133495;27;20118;-81
2023/03/04 11:32:45;;;;;;;16.25;2.97;;;;;;;;;;5114877;27;20047;-80
2023/03/04 11:35:26;;;;;;;18.05;3.95;;;;;;;;;;5116584;27;20051;-80
2023/03/04 11:38:05;;;;;;;19.10;3.58;;;;;;;;;;5128226;27;20051;-80
2023/03/04 11:40:49;;;;;;;17.42;4.35;;;;;;;;;;5138042;27;20043;-74
2023/03/04 11:43:18;;;;;;;17.10;3.50;;;;;;;;;;5106101;27;20376;-72
2023/03/04 11:45:44;;;;;;;13.32;3.42;;;;;;;;;;5129828;27;20047;-73
2023/03/04 11:48:17;;;;;;;11.80;2.88;;;;;;;;;;5127626;27;20411;-72
2023/03/04 11:50:46;;;;;;;12.18;3.13;;;;;;;;;;5129024;27;20051;-72
2023/03/04 11:53:34;;;;;;;13.57;3.10;;;;;;;;;;5128823;28;20047;-72
2023/03/04 11:56:09;;;;;;;12.50;3.20;;;;;;;;;;5110481;28;20070;-72
2023/03/04 11:58:54;;;;;;;12.68;3.10;;;;;;;;;;5111364;28;20059;-72
2023/03/04 12:01:26;;;;;;;13.32;3.30;;;;;;;;;;5129095;28;20075;-72
2023/03/04 12:04:01;;;;;;;12.77;3.20;;;;;;;;;;5128433;28;20134;-73
2023/03/04 12:06:30;;;;;;;12.35;3.10;;;;;;;;;;5130174;28;20150;-72
2023/03/04 12:09:11;;;;;;;12.57;3.00;;;;;;;;;;5151337;27;20042;-76
2023/03/04 12:11:42;;;;;;;13.55;3.05;;;;;;;;;;5134560;27;20058;-76
2023/03/04 12:14:27;;;;;;;13.07;3.13;;;;;;;;;;5129596;27;20402;-76
2023/03/04 12:16:59;;;;;;;12.60;3.30;;;;;;;;;;5116985;28;20068;-76
2023/03/04 12:19:28;;;;;;;13.95;3.40;;;;;;;;;;5126851;27;20406;-76
2023/03/04 12:21:54;;;;;;;15.05;3.03;;;;;;;;;;5134735;27;20367;-76
2023/03/04 12:24:20;;;;;;;18.40;3.63;;;;;;;;;;5117452;27;20027;-76
2023/03/04 12:26:56;;;;;;;15.80;3.20;;;;;;;;;;5134945;27;20115;-76
2023/03/04 12:29:41;;;;;;;17.80;3.17;;;;;;;;;;5135217;27;20047;-76
2023/03/04 12:32:10;;;;;;;16.23;3.20;;;;;;;;;;5120556;28;20051;-76
2023/03/04 12:34:42;;;;;;;10.10;2.95;;;;;;;;;;5132667;28;20547;-76
2023/03/04 12:37:17;;;;;;;15.10;3.00;;;;;;;;;;5109122;28;20518;-76
2023/03/04 12:39:46;;;;;;;10.60;2.60;;;;;;;;;;5113648;28;20512;-76
2023/03/04 12:42:24;;;;;;;10.77;2.45;;;;;;;;;;5111568;28;20051;-76
2023/03/04 12:45:16;;;;;;;11.57;2.60;;;;;;;;;;5112352;28;20130;-76
2023/03/04 12:48:01;;;;;;;10.90;2.60;;;;;;;;;;5132467;28;20090;-77
2023/03/04 12:50:52;;;;;;;12.40;3.03;;;;;;;;;;5121368;28;20039;-77
2023/03/04 12:53:18;;;;;;;12.52;2.60;;;;;;;;;;5132235;27;20556;-76
2023/03/04 12:55:45;;;;;;;15.50;3.00;;;;;;;;;;5131661;28;20106;-76
2023/03/04 12:58:16;;;;;;;19.25;3.33;;;;;;;;;;5136500;27;20081;-76
2023/03/04 13:00:42;;;;;;;11.57;2.65;;;;;;;;;;5155436;27;20094;-76
2023/03/04 13:03:12;;;;;;;9.85;2.80;;;;;;;;;;5156403;27;20038;-76
2023/03/04 13:05:59;;;;;;;7.15;2.30;;;;;;;;;;5135340;27;20068;-76
2023/03/04 13:08:37;;;;;;;10.52;2.40;;;;;;;;;;5076683;27;20051;-76
2023/03/04 13:11:23;;;;;;;10.48;2.60;;;;;;;;;;5136066;27;20100;-76
2023/03/04 13:14:03;;;;;;;12.20;2.42;;;;;;;;;;5120960;27;20031;-76
2023/03/04 13:16:32;;;;;;;10.23;2.67;;;;;;;;;;5099470;27;20039;-76
2023/03/04 13:18:59;;;;;;;17.67;3.28;;;;;;;;;;5105127;27;20147;-77
2023/03/04 13:21:26;;;;;;;9.75;2.35;;;;;;;;;;5116972;27;20043;-77
2023/03/04 13:23:53;;;;;;;7.28;2.30;;;;;;;;;;5117212;27;20046;-77
2023/03/04 13:26:22;;;;;;;10.52;2.30;;;;;;;;;;5135813;27;20039;-77
2023/03/04 13:28:52;;;;;;;9.25;2.10;;;;;;;;;;5145433;27;20031;-76
2023/03/04 13:31:21;;;;;;;9.77;2.20;;;;;;;;;;5119148;27;20049;-76
2023/03/04 13:33:51;;;;;;;14.13;2.22;;;;;;;;;;5132140;27;20032;-76
2023/03/04 13:36:28;;;;;;;9.80;2.30;;;;;;;;;;5116977;27;20122;-76
2023/03/04 13:38:59;;;;;;;13.35;3.00;;;;;;;;;;5117028;27;20051;-76
2023/03/04 13:41:32;;;;;;;15.70;2.60;;;;;;;;;;5116189;27;20509;-76
2023/03/04 13:44:02;;;;;;;9.00;2.58;;;;;;;;;;5135393;27;20120;-76
2023/03/04 13:46:28;;;;;;;12.77;3.15;;;;;;;;;;5134254;27;20043;-76
2023/03/04 13:48:59;;;;;;;11.35;2.40;;;;;;;;;;5100013;27;20038;-75
2023/03/04 13:51:35;;;;;;;18.80;3.50;;;;;;;;;;5116556;27;20047;-76
2023/03/04 13:54:02;;;;;;;14.43;3.42;;;;;;;;;;5098423;27;20093;-77
2023/03/04 13:56:37;;;;;;;12.80;3.30;;;;;;;;;;5115940;27;20050;-76
2023/03/04 13:59:06;;;;;;;14.55;3.65;;;;;;;;;;5115828;27;20039;-76
2023/03/04 14:01:48;;;;;;;17.83;3.45;;;;;;;;;;5134926;27;20043;-76
2023/03/04 14:04:18;;;;;;;18.70;3.40;;;;;;;;;;5135165;27;20111;-76
2023/03/04 14:06:45;;;;;;;15.75;3.38;;;;;;;;;;5134844;27;20453;-76
2023/03/04 14:09:20;;;;;;;17.58;4.32;;;;;;;;;;5134104;27;20054;-76
2023/03/04 14:11:47;;;;;;;19.38;3.50;;;;;;;;;;5116339;27;20078;-77
2023/03/04 14:14:19;;;;;;;17.65;4.43;;;;;;;;;;5116497;27;20047;-76
2023/03/04 14:16:49;;;;;;;18.67;3.47;;;;;;;;;;5134789;27;20100;-77
2023/03/04 14:19:16;;;;;;;14.88;3.22;;;;;;;;;;5134906;27;20490;-76
2023/03/04 14:21:46;;;;;;;12.93;2.97;;;;;;;;;;5116081;27;20130;-77
2023/03/04 14:24:13;;;;;;;11.65;2.72;;;;;;;;;;5142023;27;20495;-77
2023/03/04 14:26:39;;;;;;;8.80;2.50;;;;;;;;;;5119840;27;20035;-77
2023/03/04 14:29:18;;;;;;;11.98;2.80;;;;;;;;;;5134457;27;20487;-77
2023/03/04 14:31:45;;;;;;;10.43;2.30;;;;;;;;;;5134256;27;20082;-76
2023/03/04 14:34:14;;;;;;;14.40;2.90;;;;;;;;;;5134395;27;20075;-77
2023/03/04 14:36:43;;;;;;;12.02;2.65;;;;;;;;;;5106626;28;20043;-77
2023/03/04 14:39:15;;;;;;;11.85;2.80;;;;;;;;;;5095720;28;20050;-77